Time;durP1;ratioP1;P1;durP2;ratioP2;P2;SDS_P1;SDS_P2;PMS_P1;PMS_P2;Temp;Humidity;BMP_temperature;BMP_pressure;BME280_temperature;BME280_humidity;BME280_pressure;Samples;Min_cycle;Max_cycle;Signal;HPM_P1;HPM_P2
2022/12/30 00:00:56;;;;;;;22.17;3.60;;;;;;;;;;4999013;28;20064;-78
2022/12/30 00:03:21;;;;;;;20.48;3.25;;;;;;;;;;5013918;28;20501;-79
2022/12/30 00:05:47;;;;;;;24.00;3.03;;;;;;;;;;5020749;28;20041;-79
2022/12/30 00:08:45;;;;;;;13.27;2.67;;;;;;;;;;5022909;28;20085;-78
2022/12/30 00:11:04;;;;;;;15.13;2.83;;;;;;;;;;5016847;28;20041;-76
2022/12/30 00:33:06;;;;;;;14.52;3.28;;;;;;;;;;5021806;28;20076;-76
2022/12/30 00:35:32;;;;;;;21.23;5.22;;;;;;;;;;5033055;28;20057;-76
2022/12/30 00:37:57;;;;;;;12.15;3.58;;;;;;;;;;5020926;28;20390;-77
2022/12/30 00:40:23;;;;;;;14.85;2.63;;;;;;;;;;5025929;28;20041;-82
2022/12/30 00:45:32;;;;;;;33.47;3.97;;;;;;;;;;5026812;28;20029;-80
2022/12/30 00:47:57;;;;;;;25.08;3.22;;;;;;;;;;5027391;28;20037;-79
2022/12/30 00:58:34;;;;;;;10.23;2.53;;;;;;;;;;5027307;28;20439;-79
2022/12/30 01:01:00;;;;;;;31.67;3.33;;;;;;;;;;5026617;28;20116;-79
2022/12/30 01:03:25;;;;;;;23.27;2.75;;;;;;;;;;5032279;28;20470;-78
2022/12/30 01:05:51;;;;;;;19.90;3.20;;;;;;;;;;5017565;28;20029;-78
2022/12/30 01:08:16;;;;;;;16.02;2.10;;;;;;;;;;5017175;28;20164;-78
2022/12/30 01:10:41;;;;;;;10.68;2.00;;;;;;;;;;5033280;28;20025;-78
2022/12/30 01:13:07;;;;;;;17.70;2.90;;;;;;;;;;5020612;28;20036;-79
2022/12/30 01:15:33;;;;;;;25.90;2.53;;;;;;;;;;5022495;28;20496;-79
2022/12/30 01:17:58;;;;;;;21.40;1.75;;;;;;;;;;5021985;28;20029;-79
2022/12/30 01:20:24;;;;;;;10.43;1.85;;;;;;;;;;5019779;28;20113;-79
2022/12/30 01:22:49;;;;;;;22.05;2.55;;;;;;;;;;5019823;28;20478;-79
2022/12/30 01:25:15;;;;;;;15.82;1.88;;;;;;;;;;5016826;28;20065;-79
2022/12/30 01:27:40;;;;;;;14.43;2.15;;;;;;;;;;5017666;28;20036;-79
2022/12/30 01:30:06;;;;;;;18.35;1.90;;;;;;;;;;5024190;28;20033;-79
2022/12/30 01:32:33;;;;;;;18.77;2.72;;;;;;;;;;5023193;28;20053;-78
2022/12/30 01:34:58;;;;;;;22.23;2.33;;;;;;;;;;5015931;28;20042;-80
2022/12/30 01:37:24;;;;;;;23.65;2.20;;;;;;;;;;5022262;28;20554;-80
2022/12/30 01:39:49;;;;;;;15.20;1.95;;;;;;;;;;5014778;28;20026;-79
2022/12/30 01:42:21;;;;;;;22.65;2.13;;;;;;;;;;5026090;28;20457;-79
2022/12/30 01:44:49;;;;;;;20.25;1.80;;;;;;;;;;5019822;28;20122;-79
2022/12/30 01:47:29;;;;;;;13.35;2.33;;;;;;;;;;5026884;28;20080;-79
2022/12/30 01:49:59;;;;;;;19.75;1.90;;;;;;;;;;5022090;28;20085;-79
2022/12/30 01:52:26;;;;;;;25.30;2.63;;;;;;;;;;5027058;28;20136;-79
2022/12/30 01:54:56;;;;;;;19.00;1.20;;;;;;;;;;5025189;28;20037;-79
2022/12/30 01:57:21;;;;;;;17.98;2.40;;;;;;;;;;5016596;28;20398;-79
2022/12/30 01:59:47;;;;;;;35.05;3.42;;;;;;;;;;5026331;28;20026;-79
2022/12/30 02:02:13;;;;;;;36.58;3.25;;;;;;;;;;5025978;28;20033;-78
2022/12/30 02:04:38;;;;;;;14.95;2.17;;;;;;;;;;5018214;28;20041;-80
2022/12/30 02:07:06;;;;;;;21.85;2.67;;;;;;;;;;5018349;28;20034;-79
2022/12/30 02:09:33;;;;;;;17.58;2.30;;;;;;;;;;5021409;28;20034;-79
2022/12/30 02:11:59;;;;;;;18.70;1.92;;;;;;;;;;5015238;28;20034;-79
2022/12/30 02:14:26;;;;;;;23.77;2.05;;;;;;;;;;5023065;28;20045;-79
2022/12/30 02:16:54;;;;;;;28.55;1.95;;;;;;;;;;5022058;28;20030;-79
2022/12/30 02:19:58;;;;;;;11.63;1.55;;;;;;;;;;5025866;28;20061;-79
2022/12/30 02:22:51;;;;;;;21.25;1.88;;;;;;;;;;5019704;28;20068;-79
2022/12/30 02:25:44;;;;;;;20.23;2.00;;;;;;;;;;5020747;28;20124;-79
2022/12/30 02:28:33;;;;;;;27.98;2.28;;;;;;;;;;5019154;28;20032;-78
2022/12/30 02:31:36;;;;;;;20.58;2.00;;;;;;;;;;5015910;28;20041;-77
2022/12/30 02:34:13;;;;;;;19.95;1.85;;;;;;;;;;5019460;28;20029;-77
2022/12/30 02:37:25;;;;;;;22.77;3.03;;;;;;;;;;5021784;28;20037;-77
2022/12/30 02:39:58;;;;;;;19.02;2.10;;;;;;;;;;5026508;28;20124;-77
2022/12/30 02:45:41;;;;;;;22.75;1.92;;;;;;;;;;5020992;28;20112;-77
2022/12/30 02:48:14;;;;;;;20.33;1.50;;;;;;;;;;5019491;28;20041;-77
2022/12/30 02:53:28;;;;;;;8.63;1.15;;;;;;;;;;5015450;28;20048;-79
2022/12/30 02:55:54;;;;;;;10.18;2.20;;;;;;;;;;5015832;28;20541;-79
2022/12/30 02:58:20;;;;;;;15.50;1.75;;;;;;;;;;5018506;28;20046;-78
2022/12/30 03:06:31;;;;;;;25.40;2.30;;;;;;;;;;5008725;28;20069;-79
2022/12/30 03:09:18;;;;;;;16.42;1.95;;;;;;;;;;5023013;28;20060;-79
2022/12/30 03:11:49;;;;;;;14.50;1.85;;;;;;;;;;5019766;28;20128;-80
2022/12/30 03:14:25;;;;;;;17.35;1.83;;;;;;;;;;5022151;28;20064;-79
2022/12/30 03:16:55;;;;;;;12.35;2.05;;;;;;;;;;5016896;28;20050;-80
2022/12/30 03:19:22;;;;;;;14.18;1.90;;;;;;;;;;5021003;28;20486;-80
2022/12/30 03:21:49;;;;;;;27.75;2.53;;;;;;;;;;5022184;28;20447;-79
2022/12/30 03:27:03;;;;;;;32.22;2.60;;;;;;;;;;5017983;28;20459;-78
2022/12/30 03:29:34;;;;;;;14.40;1.67;;;;;;;;;;5015703;28;20049;-78
2022/12/30 03:32:00;;;;;;;14.27;1.75;;;;;;;;;;5014558;28;20029;-79
2022/12/30 03:34:26;;;;;;;16.30;2.13;;;;;;;;;;5017650;28;20067;-77
2022/12/30 03:36:56;;;;;;;20.02;2.35;;;;;;;;;;5014764;28;20092;-78
2022/12/30 03:39:25;;;;;;;11.93;2.90;;;;;;;;;;5018557;28;20032;-78
2022/12/30 03:41:51;;;;;;;18.33;2.15;;;;;;;;;;5023141;28;20038;-78
2022/12/30 03:44:17;;;;;;;10.82;1.98;;;;;;;;;;5021191;28;20065;-77
2022/12/30 03:46:44;;;;;;;10.73;1.25;;;;;;;;;;5018488;28;20371;-77
2022/12/30 03:49:10;;;;;;;14.77;2.28;;;;;;;;;;5023621;28;20045;-78
2022/12/30 03:51:35;;;;;;;12.05;1.65;;;;;;;;;;5015494;28;20034;-77
2022/12/30 03:54:00;;;;;;;9.77;1.17;;;;;;;;;;5019361;28;20500;-76
2022/12/30 03:56:26;;;;;;;15.52;1.50;;;;;;;;;;5010813;28;20382;-78
2022/12/30 03:58:51;;;;;;;13.05;1.52;;;;;;;;;;5023007;28;20125;-81
2022/12/30 04:01:17;;;;;;;11.77;1.83;;;;;;;;;;5018543;28;20050;-80
2022/12/30 04:03:42;;;;;;;16.92;2.40;;;;;;;;;;5022977;28;20092;-81
2022/12/30 04:06:07;;;;;;;13.48;2.15;;;;;;;;;;5020625;28;20045;-80
2022/12/30 04:08:33;;;;;;;15.73;2.38;;;;;;;;;;5028700;28;20460;-80
2022/12/30 04:10:58;;;;;;;18.60;2.47;;;;;;;;;;5023179;28;20036;-79
2022/12/30 04:13:24;;;;;;;13.35;2.20;;;;;;;;;;5028207;28;20034;-79
2022/12/30 04:15:50;;;;;;;13.82;1.63;;;;;;;;;;5023849;28;20061;-80
2022/12/30 04:18:16;;;;;;;11.30;1.88;;;;;;;;;;5039542;28;20578;-79
2022/12/30 04:20:41;;;;;;;13.63;2.78;;;;;;;;;;5025220;28;20033;-80
2022/12/30 04:23:07;;;;;;;10.68;1.48;;;;;;;;;;5027588;28;20383;-81
2022/12/30 04:25:32;;;;;;;16.10;2.08;;;;;;;;;;5016688;28;20467;-80
2022/12/30 04:27:57;;;;;;;8.35;1.65;;;;;;;;;;5023007;28;20029;-80
2022/12/30 04:30:23;;;;;;;11.95;2.03;;;;;;;;;;5024142;28;20037;-79
2022/12/30 04:32:48;;;;;;;14.63;2.90;;;;;;;;;;5018294;28;20454;-80
2022/12/30 04:35:13;;;;;;;18.00;1.95;;;;;;;;;;5016150;28;20092;-80
2022/12/30 04:37:39;;;;;;;6.00;1.30;;;;;;;;;;5017673;28;20450;-80
2022/12/30 04:40:05;;;;;;;12.93;2.13;;;;;;;;;;5018035;28;20477;-80
2022/12/30 04:42:30;;;;;;;8.20;2.20;;;;;;;;;;5027121;28;20128;-80
2022/12/30 04:44:56;;;;;;;10.35;1.75;;;;;;;;;;5018414;28;20438;-80
2022/12/30 04:47:21;;;;;;;9.30;1.20;;;;;;;;;;5014879;28;20038;-80
2022/12/30 04:49:46;;;;;;;11.75;1.90;;;;;;;;;;5021873;28;20124;-80
2022/12/30 04:52:12;;;;;;;7.85;1.88;;;;;;;;;;5013791;28;20038;-80
2022/12/30 04:54:37;;;;;;;13.73;1.80;;;;;;;;;;5026098;28;20381;-78
2022/12/30 04:57:03;;;;;;;9.43;1.30;;;;;;;;;;5019343;28;20129;-78
2022/12/30 04:59:28;;;;;;;16.42;2.65;;;;;;;;;;5026809;28;20029;-78
2022/12/30 05:01:53;;;;;;;17.58;2.05;;;;;;;;;;5025415;28;20037;-79
2022/12/30 05:04:19;;;;;;;10.82;1.95;;;;;;;;;;5019207;28;20442;-79
2022/12/30 05:06:44;;;;;;;8.32;1.40;;;;;;;;;;5023897;28;20041;-79
2022/12/30 05:09:10;;;;;;;13.93;2.45;;;;;;;;;;5028094;28;20022;-79
2022/12/30 05:11:35;;;;;;;10.93;2.10;;;;;;;;;;5024650;28;20033;-79
2022/12/30 05:14:00;;;;;;;9.50;1.35;;;;;;;;;;5024270;28;20026;-79
2022/12/30 05:16:26;;;;;;;12.63;1.67;;;;;;;;;;5020220;28;20120;-79
2022/12/30 05:18:51;;;;;;;8.38;1.70;;;;;;;;;;5018905;28;20038;-78
2022/12/30 05:21:16;;;;;;;15.80;1.92;;;;;;;;;;5016650;28;20034;-78
2022/12/30 05:26:25;;;;;;;12.73;1.67;;;;;;;;;;5026795;28;20052;-79
2022/12/30 05:28:51;;;;;;;15.05;1.60;;;;;;;;;;5026905;28;20029;-79
2022/12/30 05:31:18;;;;;;;14.32;1.40;;;;;;;;;;5015884;28;20406;-79
2022/12/30 05:33:44;;;;;;;12.80;1.80;;;;;;;;;;5016805;28;20034;-78
2022/12/30 05:36:11;;;;;;;7.25;1.20;;;;;;;;;;5022550;28;20053;-78
2022/12/30 05:38:37;;;;;;;11.15;1.90;;;;;;;;;;5021660;28;20037;-79
2022/12/30 05:41:02;;;;;;;10.65;1.50;;;;;;;;;;5016780;28;20393;-79
2022/12/30 05:43:28;;;;;;;4.57;1.02;;;;;;;;;;5028673;28;20095;-79
2022/12/30 05:45:53;;;;;;;12.15;2.30;;;;;;;;;;5027398;28;20060;-79
2022/12/30 05:48:18;;;;;;;6.57;1.55;;;;;;;;;;5030921;28;20117;-79
2022/12/30 05:50:47;;;;;;;10.93;1.73;;;;;;;;;;5028207;28;20072;-80
2022/12/30 05:53:13;;;;;;;12.05;1.85;;;;;;;;;;5017160;28;20045;-79
2022/12/30 05:55:38;;;;;;;16.67;2.13;;;;;;;;;;5018057;28;20386;-79
2022/12/30 05:58:03;;;;;;;14.63;1.45;;;;;;;;;;5018145;28;20108;-79
2022/12/30 06:00:29;;;;;;;9.30;1.42;;;;;;;;;;5015250;28;20041;-80
2022/12/30 06:02:54;;;;;;;11.85;1.45;;;;;;;;;;5018311;28;20070;-80
2022/12/30 06:05:19;;;;;;;11.15;1.33;;;;;;;;;;5020271;28;20029;-80
2022/12/30 06:07:45;;;;;;;13.20;2.20;;;;;;;;;;5020648;28;20037;-79
2022/12/30 06:10:10;;;;;;;10.98;1.98;;;;;;;;;;5018539;28;20080;-80
2022/12/30 06:12:36;;;;;;;10.43;1.92;;;;;;;;;;5017515;28;20033;-81
2022/12/30 06:15:01;;;;;;;18.38;2.15;;;;;;;;;;5011156;28;20132;-81
2022/12/30 06:17:26;;;;;;;12.90;1.75;;;;;;;;;;5015213;28;20049;-80
2022/12/30 06:19:52;;;;;;;13.30;1.90;;;;;;;;;;5020000;28;20465;-79
2022/12/30 06:22:17;;;;;;;14.90;1.60;;;;;;;;;;5016386;28;20042;-79
2022/12/30 06:24:42;;;;;;;14.57;1.90;;;;;;;;;;5019222;28;20279;-79
2022/12/30 06:27:08;;;;;;;5.53;1.38;;;;;;;;;;5022949;28;20037;-79
2022/12/30 06:29:33;;;;;;;11.93;1.83;;;;;;;;;;5025872;28;20041;-79
2022/12/30 06:31:59;;;;;;;20.70;1.90;;;;;;;;;;5021193;28;20041;-80
2022/12/30 06:34:24;;;;;;;15.75;2.40;;;;;;;;;;5016483;28;20029;-80
2022/12/30 06:36:49;;;;;;;13.38;2.22;;;;;;;;;;5021439;28;20100;-80
2022/12/30 06:39:15;;;;;;;15.93;1.63;;;;;;;;;;5021697;28;20110;-80
2022/12/30 06:41:40;;;;;;;16.58;1.88;;;;;;;;;;5014664;28;20461;-80
2022/12/30 06:44:05;;;;;;;15.98;2.60;;;;;;;;;;5015250;28;20113;-80
2022/12/30 06:46:31;;;;;;;9.55;1.58;;;;;;;;;;5014520;28;20046;-80
2022/12/30 06:48:56;;;;;;;16.95;1.98;;;;;;;;;;5021191;28;20050;-79
2022/12/30 06:51:22;;;;;;;6.40;1.30;;;;;;;;;;5015029;28;20517;-79
2022/12/30 06:53:47;;;;;;;12.27;1.63;;;;;;;;;;5018124;28;20038;-79
2022/12/30 06:56:12;;;;;;;15.88;2.33;;;;;;;;;;5013790;28;20371;-78
2022/12/30 06:58:38;;;;;;;16.30;2.25;;;;;;;;;;5017544;28;20042;-79
2022/12/30 07:01:03;;;;;;;15.30;1.85;;;;;;;;;;5017529;28;20045;-79
2022/12/30 07:03:29;;;;;;;13.95;1.75;;;;;;;;;;5018370;28;20037;-79
2022/12/30 07:05:54;;;;;;;11.13;1.90;;;;;;;;;;5020908;28;20377;-79
2022/12/30 07:08:19;;;;;;;11.55;1.65;;;;;;;;;;5017243;28;20049;-81
2022/12/30 07:10:45;;;;;;;10.05;1.30;;;;;;;;;;5028048;28;20038;-79
2022/12/30 07:13:12;;;;;;;6.43;0.98;;;;;;;;;;5020817;28;20033;-82
2022/12/30 07:15:37;;;;;;;8.73;1.10;;;;;;;;;;5027479;28;20045;-80
2022/12/30 07:18:03;;;;;;;12.23;1.17;;;;;;;;;;5024272;28;20568;-82
2022/12/30 07:20:28;;;;;;;12.02;1.25;;;;;;;;;;5025871;28;20129;-81
2022/12/30 07:22:53;;;;;;;4.22;0.90;;;;;;;;;;5021153;28;20366;-80
2022/12/30 07:25:19;;;;;;;6.65;2.13;;;;;;;;;;5021443;28;20069;-81
2022/12/30 07:27:44;;;;;;;3.05;2.00;;;;;;;;;;5017992;28;20042;-81
2022/12/30 07:30:11;;;;;;;5.20;1.10;;;;;;;;;;5023957;28;20084;-81
2022/12/30 07:32:36;;;;;;;4.75;1.33;;;;;;;;;;5014637;28;20038;-82
2022/12/30 07:35:02;;;;;;;14.52;1.98;;;;;;;;;;5016181;28;20045;-81
2022/12/30 07:37:28;;;;;;;4.25;0.93;;;;;;;;;;5016363;28;20073;-80
2022/12/30 07:39:53;;;;;;;8.93;1.17;;;;;;;;;;5020586;28;20073;-80
2022/12/30 07:42:19;;;;;;;13.68;1.63;;;;;;;;;;5022260;28;20041;-80
2022/12/30 07:44:44;;;;;;;6.57;1.25;;;;;;;;;;5025762;28;20038;-81
2022/12/30 07:47:09;;;;;;;6.20;1.00;;;;;;;;;;5020092;28;20025;-81
2022/12/30 07:49:35;;;;;;;5.53;0.82;;;;;;;;;;5022330;28;20490;-81
2022/12/30 07:52:01;;;;;;;5.70;1.10;;;;;;;;;;5021140;28;20052;-79
2022/12/30 07:54:27;;;;;;;11.73;1.27;;;;;;;;;;5018741;28;20038;-79
2022/12/30 07:56:52;;;;;;;10.07;1.52;;;;;;;;;;5017953;28;20038;-79
2022/12/30 07:59:17;;;;;;;5.18;1.48;;;;;;;;;;5022886;28;20029;-82
2022/12/30 08:01:43;;;;;;;12.90;1.40;;;;;;;;;;5021517;28;20041;-82
2022/12/30 08:04:08;;;;;;;5.45;1.65;;;;;;;;;;5020607;28;20034;-83
2022/12/30 08:06:34;;;;;;;4.15;0.88;;;;;;;;;;5020050;28;20496;-82
2022/12/30 08:09:04;;;;;;;6.75;1.00;;;;;;;;;;5021469;28;20029;-83
2022/12/30 08:11:29;;;;;;;4.63;1.33;;;;;;;;;;5024932;28;20038;-83
2022/12/30 08:13:55;;;;;;;2.67;0.70;;;;;;;;;;5017586;28;20053;-82
2022/12/30 08:16:20;;;;;;;3.30;0.98;;;;;;;;;;5025879;28;20112;-84
2022/12/30 08:18:46;;;;;;;3.00;0.63;;;;;;;;;;5016682;28;20488;-85
2022/12/30 08:21:15;;;;;;;7.38;0.73;;;;;;;;;;5021597;28;20108;-84
2022/12/30 08:23:46;;;;;;;2.10;0.70;;;;;;;;;;5015165;28;20371;-86
2022/12/30 08:26:14;;;;;;;10.25;1.75;;;;;;;;;;5015807;28;20402;-85
2022/12/30 08:28:39;;;;;;;6.22;1.10;;;;;;;;;;5014854;28;20042;-86
2022/12/30 08:31:07;;;;;;;8.02;1.63;;;;;;;;;;5022489;28;20052;-85
2022/12/30 08:33:32;;;;;;;4.50;0.98;;;;;;;;;;5027956;28;20037;-87
2022/12/30 08:36:09;;;;;;;6.40;1.20;;;;;;;;;;5021067;28;20033;-78
2022/12/30 08:38:37;;;;;;;5.10;1.30;;;;;;;;;;5018039;28;20140;-78
2022/12/30 08:41:14;;;;;;;3.90;1.00;;;;;;;;;;4992919;28;20054;-79
2022/12/30 08:43:40;;;;;;;7.72;0.98;;;;;;;;;;4985312;28;20069;-78
2022/12/30 08:46:05;;;;;;;3.00;1.02;;;;;;;;;;4992616;28;20066;-78
2022/12/30 08:48:31;;;;;;;15.40;1.80;;;;;;;;;;5005511;28;20489;-79
2022/12/30 08:50:57;;;;;;;9.20;1.45;;;;;;;;;;5001640;28;20073;-78
2022/12/30 08:53:23;;;;;;;10.00;1.58;;;;;;;;;;5001021;28;20037;-78
2022/12/30 08:55:48;;;;;;;7.00;1.30;;;;;;;;;;5004026;28;20359;-78
2022/12/30 08:58:14;;;;;;;7.82;1.05;;;;;;;;;;5006470;28;20068;-82
2022/12/30 09:00:39;;;;;;;7.95;1.17;;;;;;;;;;4996899;28;20042;-82
2022/12/30 09:03:06;;;;;;;3.63;0.70;;;;;;;;;;5000516;28;20030;-82
2022/12/30 09:05:35;;;;;;;3.35;1.30;;;;;;;;;;5001913;28;20089;-81
2022/12/30 09:08:00;;;;;;;3.15;0.98;;;;;;;;;;5028720;28;20042;-81
2022/12/30 09:10:26;;;;;;;7.47;1.02;;;;;;;;;;4993097;28;20092;-80
2022/12/30 09:12:52;;;;;;;6.68;1.10;;;;;;;;;;4999875;28;20089;-80
2022/12/30 09:15:17;;;;;;;3.58;0.77;;;;;;;;;;4999867;28;20402;-78
2022/12/30 09:17:42;;;;;;;4.45;1.10;;;;;;;;;;5001811;28;20045;-79
2022/12/30 09:20:08;;;;;;;2.92;0.40;;;;;;;;;;5008606;28;20117;-79
2022/12/30 09:22:33;;;;;;;0.73;0.38;;;;;;;;;;4996002;28;20046;-80
2022/12/30 09:24:59;;;;;;;1.20;0.63;;;;;;;;;;5003174;28;20034;-79
2022/12/30 09:27:24;;;;;;;4.88;0.88;;;;;;;;;;5010265;28;20473;-79
2022/12/30 09:29:50;;;;;;;3.00;0.70;;;;;;;;;;5003494;28;20033;-80
2022/12/30 09:32:15;;;;;;;4.07;0.70;;;;;;;;;;5001425;28;20035;-78
2022/12/30 09:34:41;;;;;;;10.68;1.17;;;;;;;;;;5005176;28;20037;-78
2022/12/30 09:37:07;;;;;;;1.50;0.60;;;;;;;;;;5004832;28;20030;-78
2022/12/30 09:39:32;;;;;;;6.85;1.08;;;;;;;;;;5001658;28;20041;-79
2022/12/30 09:45:19;;;;;;;4.35;1.10;;;;;;;;;;5003910;28;20512;-79
2022/12/30 09:47:52;;;;;;;2.33;0.80;;;;;;;;;;4997333;28;20065;-77
2022/12/30 09:50:29;;;;;;;1.70;0.90;;;;;;;;;;4997337;28;20512;-78
2022/12/30 09:53:06;;;;;;;4.88;1.63;;;;;;;;;;4995196;28;20069;-78
2022/12/30 09:55:40;;;;;;;2.33;1.23;;;;;;;;;;4999338;28;20498;-78
2022/12/30 09:58:11;;;;;;;1.85;0.82;;;;;;;;;;5005278;28;20034;-77
2022/12/30 10:00:37;;;;;;;1.17;0.35;;;;;;;;;;5033782;28;20053;-78
2022/12/30 10:03:05;;;;;;;1.75;0.70;;;;;;;;;;5007313;28;20034;-79
2022/12/30 10:05:51;;;;;;;0.82;0.40;;;;;;;;;;4994650;28;20434;-81
2022/12/30 10:08:45;;;;;;;3.53;0.68;;;;;;;;;;4994774;28;20088;-84
2022/12/30 10:11:27;;;;;;;2.63;0.70;;;;;;;;;;5030295;28;20050;-80
2022/12/30 10:14:30;;;;;;;2.75;0.80;;;;;;;;;;4996632;28;20035;-80
2022/12/30 10:17:05;;;;;;;1.38;0.68;;;;;;;;;;4998007;28;20129;-79
2022/12/30 10:19:30;;;;;;;1.00;0.45;;;;;;;;;;4994437;28;20034;-80
2022/12/30 10:22:13;;;;;;;4.35;0.60;;;;;;;;;;4997360;28;20441;-80
2022/12/30 10:25:02;;;;;;;2.83;0.68;;;;;;;;;;4994629;28;20041;-81
2022/12/30 10:27:48;;;;;;;2.90;1.05;;;;;;;;;;4994825;28;20093;-79
2022/12/30 10:30:16;;;;;;;3.42;0.82;;;;;;;;;;4994147;28;20387;-80
2022/12/30 10:32:46;;;;;;;0.88;0.50;;;;;;;;;;5008633;28;20536;-80
2022/12/30 10:35:20;;;;;;;1.35;0.77;;;;;;;;;;5008090;28;20041;-79
2022/12/30 10:37:47;;;;;;;2.97;0.95;;;;;;;;;;5009941;28;20046;-80
2022/12/30 10:40:14;;;;;;;1.88;0.70;;;;;;;;;;5009443;28;20084;-79
2022/12/30 10:43:04;;;;;;;4.05;0.90;;;;;;;;;;5042036;28;20037;-80
2022/12/30 10:45:32;;;;;;;4.78;0.80;;;;;;;;;;4999748;28;20112;-78
2022/12/30 10:48:22;;;;;;;1.35;0.32;;;;;;;;;;5005239;28;20032;-79
2022/12/30 10:50:48;;;;;;;2.03;0.40;;;;;;;;;;4998562;28;20379;-78
2022/12/30 10:53:20;;;;;;;1.05;0.45;;;;;;;;;;5004914;28;20505;-80
2022/12/30 10:55:51;;;;;;;1.73;0.57;;;;;;;;;;4997259;28;20074;-80
2022/12/30 10:58:25;;;;;;;2.85;0.40;;;;;;;;;;5002814;28;20133;-76
2022/12/30 11:00:50;;;;;;;3.38;0.80;;;;;;;;;;5006404;28;20049;-80
2022/12/30 11:03:30;;;;;;;2.22;0.77;;;;;;;;;;5001147;28;20026;-81
2022/12/30 11:06:15;;;;;;;0.77;0.50;;;;;;;;;;5000001;28;20050;-79
2022/12/30 11:08:41;;;;;;;2.20;0.73;;;;;;;;;;4995292;28;20492;-81
2022/12/30 11:11:07;;;;;;;1.55;0.68;;;;;;;;;;4997270;28;20058;-79
2022/12/30 11:16:28;;;;;;;1.25;0.60;;;;;;;;;;4998027;28;20040;-82
2022/12/30 11:18:55;;;;;;;1.45;0.65;;;;;;;;;;5003110;28;20042;-80
2022/12/30 11:21:39;;;;;;;0.93;0.50;;;;;;;;;;5007149;28;20038;-79
2022/12/30 11:24:04;;;;;;;1.30;0.40;;;;;;;;;;4995096;28;20121;-82
2022/12/30 11:26:33;;;;;;;2.88;0.30;;;;;;;;;;4993233;28;20121;-80
2022/12/30 11:29:15;;;;;;;1.23;0.50;;;;;;;;;;4996433;28;20034;-81
2022/12/30 11:31:47;;;;;;;1.58;0.93;;;;;;;;;;5023526;28;20030;-79
2022/12/30 11:34:34;;;;;;;2.00;0.43;;;;;;;;;;4996871;28;20089;-79
2022/12/30 11:37:20;;;;;;;1.95;0.57;;;;;;;;;;4982294;28;20389;-80
2022/12/30 11:39:45;;;;;;;1.15;0.55;;;;;;;;;;4995931;28;20411;-80
2022/12/30 11:42:28;;;;;;;1.30;0.63;;;;;;;;;;5000614;28;20046;-80
2022/12/30 11:45:18;;;;;;;1.23;0.45;;;;;;;;;;4996475;28;20038;-81
2022/12/30 11:47:45;;;;;;;0.60;0.40;;;;;;;;;;5035473;28;20438;-80
2022/12/30 11:50:16;;;;;;;2.63;0.50;;;;;;;;;;5030383;28;20042;-80
2022/12/30 11:52:48;;;;;;;0.80;0.50;;;;;;;;;;4996817;28;20061;-81
2022/12/30 11:55:23;;;;;;;4.35;0.90;;;;;;;;;;5002905;28;20041;-80
2022/12/30 11:57:49;;;;;;;2.17;0.68;;;;;;;;;;4997497;28;20034;-80
2022/12/30 12:00:18;;;;;;;3.28;1.00;;;;;;;;;;5003563;28;20038;-80
2022/12/30 12:02:49;;;;;;;3.63;1.40;;;;;;;;;;4992802;28;20058;-80
2022/12/30 12:05:27;;;;;;;6.38;1.50;;;;;;;;;;4994486;28;20483;-79
2022/12/30 12:07:58;;;;;;;3.67;1.38;;;;;;;;;;5034311;28;20484;-79
2022/12/30 12:10:30;;;;;;;2.75;1.25;;;;;;;;;;4999260;28;20460;-79
2022/12/30 12:13:12;;;;;;;4.13;1.35;;;;;;;;;;5000510;28;20037;-78
2022/12/30 12:15:44;;;;;;;7.53;1.48;;;;;;;;;;5028309;28;20046;-79
2022/12/30 12:18:31;;;;;;;4.75;2.00;;;;;;;;;;4995043;28;20425;-78
2022/12/30 12:21:05;;;;;;;5.55;2.35;;;;;;;;;;4999511;28;20038;-78
2022/12/30 12:23:30;;;;;;;5.82;1.67;;;;;;;;;;4998233;28;20073;-79
2022/12/30 12:26:02;;;;;;;5.13;1.05;;;;;;;;;;4997486;28;20042;-79
2022/12/30 12:28:27;;;;;;;6.75;1.42;;;;;;;;;;5008459;28;20046;-76
2022/12/30 12:31:06;;;;;;;8.10;1.38;;;;;;;;;;5001735;28;20540;-76
2022/12/30 12:33:46;;;;;;;10.38;1.60;;;;;;;;;;4985441;28;20042;-76
2022/12/30 12:36:27;;;;;;;6.45;1.23;;;;;;;;;;5029430;28;20440;-75
2022/12/30 12:39:01;;;;;;;6.57;1.10;;;;;;;;;;5002306;28;20046;-75
2022/12/30 12:41:39;;;;;;;9.20;1.50;;;;;;;;;;5002659;28;20042;-76
2022/12/30 12:44:22;;;;;;;9.55;1.50;;;;;;;;;;5001564;28;20065;-75
2022/12/30 12:46:57;;;;;;;10.17;1.90;;;;;;;;;;4996434;28;20172;-76
2022/12/30 12:49:52;;;;;;;7.60;1.40;;;;;;;;;;4991135;28;20462;-78
2022/12/30 12:52:48;;;;;;;10.45;2.28;;;;;;;;;;5004343;28;20393;-77
2022/12/30 12:55:39;;;;;;;6.80;1.55;;;;;;;;;;5000406;28;20091;-78
2022/12/30 12:58:10;;;;;;;8.38;1.02;;;;;;;;;;4992551;28;20030;-77
2022/12/30 13:00:55;;;;;;;6.13;1.58;;;;;;;;;;4999261;28;20037;-79
2022/12/30 13:03:21;;;;;;;10.65;1.98;;;;;;;;;;5000693;28;20092;-81
2022/12/30 13:06:00;;;;;;;10.30;2.22;;;;;;;;;;4996803;28;20054;-78
2022/12/30 13:08:59;;;;;;;12.10;3.33;;;;;;;;;;4992427;28;20030;-82
2022/12/30 13:11:37;;;;;;;4.35;1.13;;;;;;;;;;5005528;28;20040;-81
2022/12/30 13:14:27;;;;;;;8.57;2.13;;;;;;;;;;4998745;28;20042;-79
2022/12/30 13:16:55;;;;;;;11.18;2.35;;;;;;;;;;5036461;28;20474;-80
2022/12/30 13:19:31;;;;;;;7.45;1.27;;;;;;;;;;5002998;28;20033;-76
2022/12/30 13:22:00;;;;;;;3.60;0.88;;;;;;;;;;5044007;28;20092;-77
2022/12/30 13:24:33;;;;;;;4.05;0.90;;;;;;;;;;5029223;28;20030;-77
2022/12/30 13:26:58;;;;;;;4.53;1.17;;;;;;;;;;4996736;28;20035;-77
2022/12/30 13:29:30;;;;;;;3.28;1.00;;;;;;;;;;4993005;28;20100;-78
2022/12/30 13:32:10;;;;;;;6.68;0.70;;;;;;;;;;4999313;28;20383;-78
2022/12/30 13:34:51;;;;;;;9.48;1.25;;;;;;;;;;5003222;28;20106;-78
2022/12/30 13:37:21;;;;;;;2.58;0.60;;;;;;;;;;4990039;28;20044;-78
2022/12/30 13:39:57;;;;;;;2.30;0.60;;;;;;;;;;4994101;28;20129;-78
2022/12/30 13:42:47;;;;;;;1.83;0.85;;;;;;;;;;5008612;28;20073;-78
2022/12/30 13:45:27;;;;;;;2.35;0.50;;;;;;;;;;5017291;28;20053;-79
2022/12/30 13:48:04;;;;;;;4.47;1.05;;;;;;;;;;4995222;28;20046;-78
2022/12/30 13:50:31;;;;;;;4.32;0.90;;;;;;;;;;4986303;28;20073;-79
2022/12/30 13:52:58;;;;;;;4.65;1.25;;;;;;;;;;4999728;28;20050;-78
2022/12/30 13:55:27;;;;;;;2.80;0.70;;;;;;;;;;5044744;28;20045;-79
2022/12/30 13:57:59;;;;;;;1.45;0.70;;;;;;;;;;4999629;28;20520;-79
2022/12/30 14:00:29;;;;;;;2.05;0.80;;;;;;;;;;5002607;28;20442;-79
2022/12/30 14:03:04;;;;;;;2.97;0.75;;;;;;;;;;5026459;28;20042;-78
2022/12/30 14:05:31;;;;;;;4.05;1.23;;;;;;;;;;4995608;28;20065;-78
2022/12/30 14:07:57;;;;;;;3.30;0.90;;;;;;;;;;4997569;28;20114;-78
2022/12/30 14:10:23;;;;;;;5.88;1.20;;;;;;;;;;4999806;28;20561;-78
2022/12/30 14:13:05;;;;;;;4.07;1.02;;;;;;;;;;5002143;28;20038;-78
2022/12/30 14:15:30;;;;;;;6.97;1.13;;;;;;;;;;4998532;28;20038;-77
2022/12/30 14:17:58;;;;;;;4.70;1.00;;;;;;;;;;5004281;28;20036;-79
2022/12/30 14:20:26;;;;;;;6.43;1.08;;;;;;;;;;5009899;28;20038;-78
2022/12/30 14:22:58;;;;;;;5.00;1.20;;;;;;;;;;5003228;28;20124;-78
2022/12/30 14:25:31;;;;;;;4.20;0.82;;;;;;;;;;5017424;28;20042;-78
2022/12/30 14:28:12;;;;;;;1.50;0.83;;;;;;;;;;4999473;28;20058;-77
2022/12/30 14:30:41;;;;;;;4.72;1.33;;;;;;;;;;4998949;28;20046;-79
2022/12/30 14:33:13;;;;;;;8.27;1.52;;;;;;;;;;4999472;28;20123;-78
2022/12/30 14:35:48;;;;;;;7.43;1.08;;;;;;;;;;4999428;28;20134;-79
2022/12/30 14:38:23;;;;;;;6.35;1.33;;;;;;;;;;5003980;28;20038;-78
2022/12/30 14:40:57;;;;;;;2.72;1.02;;;;;;;;;;5001172;28;20150;-78
2022/12/30 14:43:25;;;;;;;7.78;1.30;;;;;;;;;;5001254;28;20496;-79
2022/12/30 14:45:51;;;;;;;6.93;1.42;;;;;;;;;;5003472;28;20119;-79
2022/12/30 14:48:54;;;;;;;8.80;1.75;;;;;;;;;;5006624;28;20085;-79
2022/12/30 14:51:19;;;;;;;7.88;1.27;;;;;;;;;;5001467;28;20038;-79
2022/12/30 14:53:45;;;;;;;5.97;1.42;;;;;;;;;;4999164;28;20391;-79
2022/12/30 14:56:17;;;;;;;7.72;1.75;;;;;;;;;;5005684;28;20048;-79
2022/12/30 14:58:42;;;;;;;14.85;1.60;;;;;;;;;;5000195;28;20049;-79
2022/12/30 15:01:11;;;;;;;7.65;1.13;;;;;;;;;;4999993;28;20076;-79
2022/12/30 15:03:36;;;;;;;10.60;1.63;;;;;;;;;;5005364;28;20142;-78
2022/12/30 15:06:02;;;;;;;9.93;1.90;;;;;;;;;;4999466;28;20177;-79
2022/12/30 15:08:34;;;;;;;6.25;1.50;;;;;;;;;;5006059;28;20458;-79
2022/12/30 15:11:02;;;;;;;10.75;2.38;;;;;;;;;;4998825;28;20042;-78
2022/12/30 15:13:27;;;;;;;10.90;1.65;;;;;;;;;;5045287;28;20121;-78
2022/12/30 15:15:56;;;;;;;9.88;1.42;;;;;;;;;;5004873;28;20541;-78
2022/12/30 15:18:24;;;;;;;11.63;1.95;;;;;;;;;;5005722;28;20040;-79
2022/12/30 15:20:49;;;;;;;12.50;1.90;;;;;;;;;;5007008;28;20034;-79
2022/12/30 15:23:17;;;;;;;6.43;1.40;;;;;;;;;;5011197;28;20125;-79
2022/12/30 15:25:44;;;;;;;9.75;1.58;;;;;;;;;;5003089;28;20036;-79
2022/12/30 15:28:09;;;;;;;5.88;2.50;;;;;;;;;;5001132;28;20045;-78
2022/12/30 15:30:35;;;;;;;16.80;1.52;;;;;;;;;;5009838;28;20034;-79
2022/12/30 15:33:09;;;;;;;10.15;1.95;;;;;;;;;;5003881;28;20442;-78
2022/12/30 15:35:38;;;;;;;10.20;1.75;;;;;;;;;;5003827;28;20103;-79
2022/12/30 15:38:07;;;;;;;18.15;1.98;;;;;;;;;;5003733;28;20045;-78
2022/12/30 15:40:33;;;;;;;8.98;2.00;;;;;;;;;;4997576;28;20042;-79
2022/12/30 15:43:03;;;;;;;14.45;2.50;;;;;;;;;;4996783;28;20040;-79
2022/12/30 15:45:35;;;;;;;14.70;2.20;;;;;;;;;;4998946;28;20070;-78